createdAt,value
2023-11-27T00:00:43.990Z,1000.83
2023-11-27T00:01:44.085Z,1000.83
2023-11-27T00:02:43.967Z,1000.81
2023-11-27T00:03:43.951Z,1000.82
2023-11-27T00:04:43.946Z,1000.83
2023-11-27T00:05:43.869Z,1000.83
2023-11-27T00:06:43.861Z,1000.82
2023-11-27T00:07:43.826Z,1000.80
2023-11-27T00:08:43.806Z,1000.81
2023-11-27T00:09:43.895Z,1000.79
2023-11-27T00:10:43.932Z,1000.79
2023-11-27T00:11:43.799Z,1000.77
2023-11-27T00:12:43.787Z,1000.80
2023-11-27T00:13:43.975Z,1000.78
2023-11-27T00:14:43.777Z,1000.74
2023-11-27T00:15:43.827Z,1000.77
2023-11-27T00:16:43.794Z,1000.75
2023-11-27T00:17:43.835Z,1000.72
2023-11-27T00:18:43.743Z,1000.72
2023-11-27T00:19:43.739Z,1000.67
2023-11-27T00:20:43.739Z,1000.65
2023-11-27T00:21:43.721Z,1000.63
2023-11-27T00:22:43.671Z,1000.62
2023-11-27T00:23:43.658Z,1000.61
2023-11-27T00:24:43.694Z,1000.58
2023-11-27T00:25:43.645Z,1000.56
2023-11-27T00:26:43.638Z,1000.53
2023-11-27T00:27:43.798Z,1000.53
2023-11-27T00:28:43.614Z,1000.52
2023-11-27T00:29:43.606Z,1000.49
2023-11-27T00:30:43.668Z,1000.46
2023-11-27T00:31:43.728Z,1000.44
2023-11-27T00:32:43.570Z,1000.43
2023-11-27T00:33:43.570Z,1000.41
2023-11-27T00:34:43.553Z,1000.38
2023-11-27T00:35:43.559Z,1000.37
2023-11-27T00:36:43.555Z,1000.36
2023-11-27T00:37:43.553Z,1000.36
2023-11-27T00:38:43.493Z,1000.34
2023-11-27T00:39:43.884Z,1000.34
2023-11-27T00:40:43.463Z,1000.34
2023-11-27T00:41:43.470Z,1000.30
2023-11-27T00:42:43.489Z,1000.29
2023-11-27T00:43:43.480Z,1000.29
2023-11-27T00:44:44.896Z,1000.26
2023-11-27T00:45:43.454Z,1000.25
2023-11-27T00:46:43.421Z,1000.22
2023-11-27T00:47:43.485Z,1000.22
2023-11-27T00:48:43.404Z,1000.22
2023-11-27T00:49:43.394Z,1000.19
2023-11-27T00:50:43.361Z,1000.19
2023-11-27T00:51:43.384Z,1000.16
2023-11-27T00:52:43.336Z,1000.16
2023-11-27T00:53:43.355Z,1000.15
2023-11-27T00:54:43.434Z,1000.16
2023-11-27T00:55:43.326Z,1000.13
2023-11-27T00:56:43.302Z,1000.14
2023-11-27T00:57:43.339Z,1000.11
2023-11-27T00:58:43.277Z,1000.10
2023-11-27T00:59:43.274Z,1000.10
2023-11-27T01:00:43.313Z,1000.12
2023-11-27T01:01:43.286Z,1000.12
2023-11-27T01:02:43.332Z,1000.12
2023-11-27T01:03:43.292Z,1000.11
2023-11-27T01:04:43.213Z,1000.12
2023-11-27T01:05:43.237Z,1000.14
2023-11-27T01:06:43.234Z,1000.10
2023-11-27T01:07:43.215Z,1000.14
2023-11-27T01:08:43.216Z,1000.11
2023-11-27T01:09:43.227Z,1000.13
2023-11-27T01:10:43.174Z,1000.12
2023-11-27T01:11:43.163Z,1000.12
2023-11-27T01:12:43.234Z,1000.12
2023-11-27T01:13:43.145Z,1000.11
2023-11-27T01:14:43.157Z,1000.09
2023-11-27T01:15:43.302Z,1000.06
2023-11-27T01:16:43.080Z,1000.06
2023-11-27T01:17:43.106Z,1000.06
2023-11-27T01:18:43.111Z,1000.05
2023-11-27T01:19:43.065Z,1000.05
2023-11-27T01:20:43.064Z,1000.04
2023-11-27T01:21:43.104Z,1000.04
2023-11-27T01:22:47.712Z,1000.01
2023-11-27T01:23:43.023Z,1000.01
2023-11-27T01:24:43.030Z,999.99
2023-11-27T01:25:43.044Z,999.98
2023-11-27T01:26:43.063Z,999.93
2023-11-27T01:27:43.068Z,999.95
2023-11-27T01:28:43.106Z,999.94
2023-11-27T01:29:42.972Z,999.92
2023-11-27T01:30:43.035Z,999.91
2023-11-27T01:31:43.012Z,999.92
2023-11-27T01:32:42.993Z,999.88
2023-11-27T01:33:43.094Z,999.86
2023-11-27T01:34:43.027Z,999.89
2023-11-27T01:35:42.926Z,999.87
2023-11-27T01:36:42.985Z,999.83
2023-11-27T01:37:42.898Z,999.84
2023-11-27T01:38:42.949Z,999.82
2023-11-27T01:39:42.975Z,999.80
2023-11-27T01:40:42.832Z,999.80
2023-11-27T01:41:42.949Z,999.77
2023-11-27T01:42:42.920Z,999.75
2023-11-27T01:43:42.817Z,999.76
2023-11-27T01:44:42.916Z,999.72
2023-11-27T01:45:42.818Z,999.72
2023-11-27T01:46:42.818Z,999.69
2023-11-27T01:47:42.787Z,999.69
2023-11-27T01:48:42.813Z,999.66
2023-11-27T01:49:42.730Z,999.64
2023-11-27T01:50:42.762Z,999.66
2023-11-27T01:51:42.747Z,999.64
2023-11-27T01:52:42.719Z,999.62
2023-11-27T01:53:42.702Z,999.62
2023-11-27T01:54:42.720Z,999.58
2023-11-27T01:55:42.667Z,999.63
2023-11-27T01:56:42.712Z,999.55
2023-11-27T01:57:42.701Z,999.54
2023-11-27T01:58:42.655Z,999.53
2023-11-27T01:59:42.626Z,999.52
2023-11-27T02:00:42.709Z,999.52
2023-11-27T02:01:42.710Z,999.49
2023-11-27T02:02:42.679Z,999.47
2023-11-27T02:03:42.662Z,999.46
2023-11-27T02:04:42.594Z,999.44
2023-11-27T02:05:42.561Z,999.44
2023-11-27T02:06:42.652Z,999.42
2023-11-27T02:07:42.542Z,999.38
2023-11-27T02:08:42.580Z,999.40
2023-11-27T02:09:42.560Z,999.40
2023-11-27T02:10:42.526Z,999.37
2023-11-27T02:11:42.498Z,999.34
2023-11-27T02:12:42.535Z,999.34
2023-11-27T02:13:42.480Z,999.33
2023-11-27T02:14:42.498Z,999.30
2023-11-27T02:15:42.471Z,999.29
2023-11-27T02:16:42.494Z,999.26
2023-11-27T02:17:42.477Z,999.26
2023-11-27T02:18:42.445Z,999.24
2023-11-27T02:19:42.453Z,999.24
2023-11-27T02:20:42.421Z,999.20
2023-11-27T02:21:42.444Z,999.20
2023-11-27T02:22:42.394Z,999.18
2023-11-27T02:23:42.399Z,999.16
2023-11-27T02:24:42.381Z,999.14
2023-11-27T02:25:42.379Z,999.19
2023-11-27T02:26:42.366Z,999.16
2023-11-27T02:27:42.371Z,999.15
2023-11-27T02:28:42.349Z,999.16
2023-11-27T02:29:42.360Z,999.12
2023-11-27T07:00:51.860Z,995.73
2023-11-27T07:01:52.886Z,995.70
2023-11-27T07:02:52.819Z,995.78
2023-11-27T07:03:52.864Z,995.68
2023-11-27T07:04:52.796Z,995.70
2023-11-27T07:05:52.786Z,995.62
2023-11-27T07:06:52.776Z,995.65
2023-11-27T07:07:52.790Z,995.66
2023-11-27T07:08:52.709Z,995.67
2023-11-27T07:09:52.783Z,995.68
2023-11-27T07:10:55.657Z,995.62
2023-11-27T07:11:52.725Z,995.62
2023-11-27T07:12:52.708Z,995.63
2023-11-27T07:13:52.675Z,995.60
2023-11-27T07:14:52.650Z,995.60
2023-11-27T07:15:53.620Z,995.61
2023-11-27T07:16:52.698Z,995.58
2023-11-27T07:17:58.096Z,995.56
2023-11-27T07:18:52.761Z,995.54
2023-11-27T07:19:53.470Z,995.55
2023-11-27T07:20:52.578Z,995.54
2023-11-27T07:21:52.685Z,995.51
2023-11-27T07:22:52.555Z,995.50
2023-11-27T07:23:52.558Z,995.49
2023-11-27T07:24:52.548Z,995.47
2023-11-27T07:25:52.543Z,995.44
2023-11-27T07:26:52.529Z,995.45
2023-11-27T07:27:52.657Z,995.40
2023-11-27T07:28:52.535Z,995.44
2023-11-27T07:29:52.545Z,995.41
2023-11-27T07:30:52.570Z,995.39
2023-11-27T07:31:52.574Z,995.40
2023-11-27T07:32:52.513Z,995.34
2023-11-27T07:33:52.533Z,995.32
2023-11-27T07:34:52.440Z,995.31
2023-11-27T07:35:52.492Z,995.32
2023-11-27T07:36:52.457Z,995.25
2023-11-27T07:37:52.421Z,995.26
2023-11-27T07:38:52.395Z,995.25
2023-11-27T07:39:52.438Z,995.28
2023-11-27T07:40:52.371Z,995.22
2023-11-27T07:41:52.384Z,995.20
2023-11-27T07:42:52.368Z,995.23
2023-11-27T07:43:52.401Z,995.26
2023-11-27T07:44:52.338Z,995.21
2023-11-27T07:45:52.386Z,995.24
2023-11-27T07:46:52.435Z,995.20
2023-11-27T07:47:53.526Z,995.20
2023-11-27T07:48:52.288Z,995.17
2023-11-27T07:49:52.317Z,995.18
2023-11-27T07:50:52.278Z,995.14
2023-11-27T07:51:52.322Z,995.15
2023-11-27T07:52:52.265Z,995.20
2023-11-27T07:53:52.257Z,995.13
2023-11-27T07:54:52.235Z,995.14
2023-11-27T07:55:52.267Z,995.12
2023-11-27T07:56:52.212Z,995.15
2023-11-27T07:57:53.194Z,995.08
2023-11-27T07:58:52.188Z,995.11
2023-11-27T07:59:52.185Z,995.10
2023-11-27T08:00:52.171Z,995.12
2023-11-27T08:01:52.383Z,995.07
2023-11-27T08:02:52.152Z,995.08
2023-11-27T08:03:52.259Z,995.04
2023-11-27T08:04:52.269Z,995.04
2023-11-27T08:05:52.130Z,995.05
2023-11-27T08:06:52.108Z,995.03
2023-11-27T08:07:52.916Z,995.08
2023-11-27T08:08:52.084Z,995.02
2023-11-27T08:09:52.117Z,995.02
2023-11-27T08:10:52.077Z,995.00
2023-11-27T08:11:52.104Z,994.99
2023-11-27T08:12:52.046Z,994.93
2023-11-27T08:13:52.074Z,994.96
2023-11-27T08:14:52.058Z,994.92
2023-11-27T08:15:52.053Z,994.97
2023-11-27T08:16:52.188Z,994.94
2023-11-27T08:17:52.042Z,994.93
2023-11-27T08:18:52.021Z,994.88
2023-11-27T08:19:51.993Z,994.92
2023-11-27T08:20:51.992Z,994.94
2023-11-27T08:21:51.999Z,994.86
2023-11-27T08:22:51.960Z,994.87
2023-11-27T08:30:55.227Z,994.76
2023-11-27T08:31:56.063Z,994.74
2023-11-27T08:32:56.040Z,994.69
2023-11-27T08:33:56.092Z,994.68
2023-11-27T08:34:55.996Z,994.66
2023-11-27T08:35:56.019Z,994.61
2023-11-27T08:36:55.987Z,994.63
2023-11-27T08:37:55.996Z,994.61
2023-11-27T08:38:55.961Z,994.57
2023-11-27T08:39:55.994Z,994.55
2023-11-27T08:40:55.926Z,994.53
2023-11-27T08:41:56.052Z,994.51
2023-11-27T08:42:55.950Z,994.53
2023-11-27T08:43:55.945Z,994.50
2023-11-27T08:44:55.901Z,994.52
2023-11-27T08:45:55.972Z,994.50
2023-11-27T08:46:55.926Z,994.45
2023-11-27T08:47:55.910Z,994.40
2023-11-27T08:48:55.882Z,994.41
2023-11-27T08:49:55.875Z,994.38
2023-11-27T08:50:55.830Z,994.37
2023-11-27T08:51:55.865Z,994.38
2023-11-27T08:52:55.798Z,994.39
2023-11-27T08:53:55.827Z,994.36
2023-11-27T08:54:55.829Z,994.34
2023-11-27T08:55:55.802Z,994.33
2023-11-27T08:56:55.817Z,994.33
2023-11-27T08:57:55.803Z,994.31
2023-11-27T08:58:55.741Z,994.33
2023-11-27T08:59:55.769Z,994.30
2023-11-27T09:00:55.761Z,994.24
2023-11-27T09:01:55.844Z,994.26
2023-11-27T09:02:57.024Z,994.26
2023-11-27T09:03:55.796Z,994.26
2023-11-27T09:04:55.679Z,994.26
2023-11-27T09:05:55.740Z,994.26
2023-11-27T09:06:55.672Z,994.23
2023-11-27T09:07:55.676Z,994.24
2023-11-27T09:08:55.694Z,994.24
2023-11-27T09:09:55.693Z,994.16
2023-11-27T09:10:55.695Z,994.25
2023-11-27T09:11:55.620Z,994.19
2023-11-27T09:12:55.668Z,994.18
2023-11-27T09:13:55.644Z,994.14
2023-11-27T09:14:55.598Z,994.10
2023-11-27T09:15:55.724Z,994.11
2023-11-27T09:16:56.868Z,994.11
2023-11-27T09:17:55.593Z,994.04
2023-11-27T09:18:55.622Z,994.08
2023-11-27T09:19:55.549Z,994.11
2023-11-27T09:20:55.546Z,994.04
2023-11-27T09:21:55.547Z,994.03
2023-11-27T09:22:55.512Z,994.00
2023-11-27T09:23:55.528Z,994.01
2023-11-27T09:24:55.480Z,993.96
2023-11-27T09:25:55.495Z,993.94
2023-11-27T09:26:55.477Z,993.95
2023-11-27T09:27:55.494Z,993.95
2023-11-27T09:28:55.476Z,993.93
2023-11-27T09:29:55.436Z,993.87
2023-11-27T09:30:55.445Z,993.86
2023-11-27T09:31:55.509Z,993.85
2023-11-27T09:32:55.432Z,993.83
2023-11-27T09:33:55.408Z,993.76
2023-11-27T09:34:55.380Z,993.76
2023-11-27T09:35:55.384Z,993.77
2023-11-27T09:37:02.496Z,993.75
2023-11-27T09:37:55.388Z,993.71
2023-11-27T09:38:55.328Z,993.72
2023-11-27T09:39:55.329Z,993.73
2023-11-27T09:40:55.319Z,993.66
2023-11-27T09:41:55.318Z,993.66
2023-11-27T09:42:55.370Z,993.62
2023-11-27T09:43:55.310Z,993.65
2023-11-27T09:44:55.281Z,993.58
2023-11-27T09:45:55.272Z,993.54
2023-11-27T09:46:55.253Z,993.57
2023-11-27T09:47:55.314Z,993.56
2023-11-27T09:48:55.243Z,993.55
2023-11-27T09:49:55.243Z,993.52
2023-11-27T09:50:55.235Z,993.47
2023-11-27T09:51:55.226Z,993.45
2023-11-27T09:52:55.204Z,993.43
2023-11-27T09:53:55.196Z,993.44
2023-11-27T09:54:55.196Z,993.44
2023-11-27T09:55:55.278Z,993.47
2023-11-27T09:56:55.184Z,993.39
2023-11-27T09:57:55.177Z,993.34
2023-11-27T09:58:55.123Z,993.37
2023-11-27T09:59:55.154Z,993.32
2023-11-27T10:00:55.234Z,993.27
2023-11-27T10:01:55.295Z,993.28
2023-11-27T10:02:55.301Z,993.22
2023-11-27T10:03:55.108Z,993.17
2023-11-27T10:04:55.108Z,993.21
2023-11-27T10:05:55.107Z,993.15
2023-11-27T10:06:55.108Z,993.13
2023-11-27T10:07:55.110Z,993.10
2023-11-27T10:08:55.036Z,993.10
2023-11-27T10:09:55.037Z,993.06
2023-11-27T10:10:55.037Z,993.02
2023-11-27T10:11:55.001Z,993.00
2023-11-27T10:12:55.062Z,992.98
2023-11-27T10:14:55.022Z,992.93
2023-11-27T10:15:55.085Z,992.88
2023-11-27T10:16:55.036Z,992.87
2023-11-27T10:19:44.014Z,992.76
2023-11-27T10:23:11.568Z,992.67
2023-11-27T10:24:12.588Z,992.57
2023-11-27T10:25:12.533Z,992.57
2023-11-27T10:26:12.518Z,992.59
2023-11-27T10:27:12.521Z,992.50
2023-11-27T10:28:14.292Z,992.49
2023-11-27T10:29:12.502Z,992.42
2023-11-27T10:30:12.495Z,992.44
2023-11-27T10:31:12.525Z,992.36
2023-11-27T10:32:12.576Z,992.30
2023-11-27T10:33:12.524Z,992.26
2023-11-27T10:34:12.437Z,992.30
2023-11-27T10:35:12.459Z,992.23
2023-11-27T10:36:12.480Z,992.24
2023-11-27T10:37:12.407Z,992.17
2023-11-27T10:38:12.401Z,992.21
2023-11-27T10:39:12.362Z,992.18
2023-11-27T10:40:12.387Z,992.12
2023-11-27T10:41:12.378Z,992.09
2023-11-27T10:42:12.349Z,992.06
2023-11-27T10:43:12.449Z,992.03
2023-11-27T10:44:12.374Z,992.00
2023-11-27T10:45:12.301Z,991.99
2023-11-27T10:46:12.363Z,991.98
2023-11-27T10:47:12.383Z,991.93
2023-11-27T10:48:12.617Z,991.93
2023-11-27T10:49:12.398Z,991.88
2023-11-27T10:50:12.272Z,991.87
2023-11-27T10:51:12.248Z,991.81
2023-11-27T10:52:12.285Z,991.83
2023-11-27T10:53:12.278Z,991.79
2023-11-27T10:54:12.222Z,991.75
2023-11-27T10:55:12.212Z,991.76
2023-11-27T10:56:12.206Z,991.79
2023-11-27T10:57:12.189Z,991.66
2023-11-27T10:58:12.199Z,991.67
2023-11-27T10:59:12.204Z,991.68
2023-11-27T11:00:12.219Z,991.60
2023-11-27T11:01:12.190Z,991.60
2023-11-27T11:02:12.217Z,991.56
2023-11-27T11:03:12.130Z,991.53
2023-11-27T11:04:12.216Z,991.46
2023-11-27T11:05:12.606Z,991.44
2023-11-27T11:06:12.088Z,991.43
2023-11-27T11:07:12.090Z,991.39
2023-11-27T11:08:12.114Z,991.45
2023-11-27T11:09:12.185Z,991.41
2023-11-27T11:10:12.147Z,991.43
2023-11-27T11:11:12.025Z,991.43
2023-11-27T11:12:12.035Z,991.42
2023-11-27T11:13:12.033Z,991.39
2023-11-27T11:14:12.018Z,991.35
2023-11-27T11:15:12.012Z,991.35
2023-11-27T11:16:12.158Z,991.32
2023-11-27T11:17:12.035Z,991.28
2023-11-27T11:18:12.319Z,991.27
2023-11-27T11:19:11.995Z,991.29
2023-11-27T11:20:11.991Z,991.27
2023-11-27T11:21:11.934Z,991.21
2023-11-27T11:22:11.984Z,991.17
2023-11-27T11:23:12.143Z,991.19
2023-11-27T11:24:11.936Z,991.20
2023-11-27T11:25:11.928Z,991.15
2023-11-27T11:26:11.899Z,991.11
2023-11-27T11:27:11.889Z,991.09
2023-11-27T11:28:11.921Z,991.07
2023-11-27T11:29:11.869Z,991.04
2023-11-27T11:30:11.932Z,991.05
2023-11-27T11:31:11.974Z,990.92
2023-11-27T11:32:11.830Z,990.98
2023-11-27T11:33:11.820Z,990.95
2023-11-27T11:34:11.903Z,990.92
2023-11-27T11:35:11.796Z,990.87
2023-11-27T11:36:11.789Z,990.86
2023-11-27T11:37:11.792Z,990.84
2023-11-27T11:38:11.805Z,990.83
2023-11-27T11:39:11.779Z,990.79
2023-11-27T11:40:12.607Z,990.81
2023-11-27T11:41:11.715Z,990.74
2023-11-27T11:42:11.748Z,990.73
2023-11-27T11:43:11.851Z,990.71
2023-11-27T11:44:11.728Z,990.68
2023-11-27T11:45:11.967Z,990.66
2023-11-27T11:46:11.774Z,990.60
2023-11-27T11:47:11.762Z,990.64
2023-11-27T11:48:11.846Z,990.60
2023-11-27T11:49:11.727Z,990.56
2023-11-27T11:50:11.689Z,990.52
2023-11-27T11:51:11.686Z,990.56
2023-11-27T11:52:11.701Z,990.50
2023-11-27T11:53:11.661Z,990.46
2023-11-27T11:54:11.614Z,990.48
2023-11-27T11:55:11.739Z,990.41
2023-11-27T11:56:11.614Z,990.43
2023-11-27T11:57:11.573Z,990.37
2023-11-27T11:58:11.599Z,990.32
2023-11-27T11:59:11.557Z,990.30
2023-11-27T12:00:11.538Z,990.24
2023-11-27T12:01:11.555Z,990.23
2023-11-27T12:02:11.733Z,990.20
2023-11-27T12:03:11.607Z,990.16
2023-11-27T12:04:11.651Z,990.14
2023-11-27T12:05:11.526Z,990.13
2023-11-27T12:06:11.474Z,990.10
2023-11-27T12:07:11.498Z,990.03
2023-11-27T12:08:11.483Z,990.04
2023-11-27T12:09:11.434Z,989.98
2023-11-27T12:10:11.516Z,989.96
2023-11-27T12:11:11.415Z,989.93
2023-11-27T12:12:11.430Z,989.91
2023-11-27T12:13:11.486Z,989.87
2023-11-27T12:14:11.449Z,989.84
2023-11-27T12:15:11.387Z,989.83
2023-11-27T12:16:11.410Z,989.83
2023-11-27T12:17:11.429Z,989.80
2023-11-27T12:18:11.526Z,989.81
2023-11-27T12:19:11.414Z,989.76
2023-11-27T12:20:11.391Z,989.74
2023-11-27T12:21:11.321Z,989.71
2023-11-27T12:22:11.391Z,989.71
2023-11-27T12:23:11.299Z,989.73
2023-11-27T12:24:11.351Z,989.70
2023-11-27T12:25:11.289Z,989.70
2023-11-27T12:26:11.357Z,989.63
2023-11-27T12:27:11.280Z,989.63
2023-11-27T12:28:11.330Z,989.60
2023-11-27T12:29:11.222Z,989.56
2023-11-27T12:30:11.302Z,989.54
2023-11-27T12:31:11.276Z,989.52
2023-11-27T12:32:11.296Z,989.56
2023-11-27T12:33:11.248Z,989.52
2023-11-27T12:34:11.213Z,989.50
2023-11-27T12:35:11.187Z,989.51
2023-11-27T12:36:11.201Z,989.46
2023-11-27T12:37:11.179Z,989.46
2023-11-27T12:38:11.198Z,989.42
2023-11-27T12:39:11.125Z,989.42
2023-11-27T12:40:11.169Z,989.40
2023-11-27T12:41:11.114Z,989.39
2023-11-27T12:42:11.151Z,989.38
2023-11-27T12:43:11.118Z,989.35
2023-11-27T12:44:11.084Z,989.35
2023-11-27T12:45:11.066Z,989.28
2023-11-27T12:46:11.343Z,989.30
2023-11-27T12:47:11.280Z,989.23
2023-11-27T12:48:11.111Z,989.23
2023-11-27T12:49:11.078Z,989.22
2023-11-27T12:50:11.057Z,989.18
2023-11-27T12:51:11.001Z,989.15
2023-11-27T12:52:11.108Z,989.13
2023-11-27T12:53:11.025Z,989.14
2023-11-27T12:54:11.052Z,989.15
2023-11-27T12:55:11.042Z,989.06
2023-11-27T12:56:11.087Z,989.07
2023-11-27T12:57:11.009Z,989.05
2023-11-27T12:58:12.173Z,989.04
2023-11-27T12:59:10.935Z,989.03
2023-11-27T13:00:10.911Z,989.05
2023-11-27T13:01:11.288Z,989.05
2023-11-27T13:02:11.066Z,989.03
2023-11-27T13:03:10.943Z,988.98
2023-11-27T13:04:10.951Z,988.97
2023-11-27T13:05:10.892Z,988.96
2023-11-27T13:06:10.898Z,988.93
2023-11-27T13:07:11.263Z,988.91
2023-11-27T13:08:10.846Z,988.89
2023-11-27T13:09:10.820Z,988.85
2023-11-27T13:10:10.937Z,988.86
2023-11-27T13:11:10.821Z,988.84
2023-11-27T13:12:10.812Z,988.83
2023-11-27T13:13:10.792Z,988.77
2023-11-27T13:14:10.776Z,988.75
2023-11-27T13:15:10.829Z,988.67
2023-11-27T13:16:10.838Z,988.65
2023-11-27T13:17:11.072Z,988.61
2023-11-27T13:18:10.755Z,988.58
2023-11-27T13:19:10.794Z,988.56
2023-11-27T13:20:10.749Z,988.54
2023-11-27T13:21:10.806Z,988.51
2023-11-27T13:22:10.780Z,988.46
2023-11-27T13:23:10.763Z,988.47
2023-11-27T13:24:10.730Z,988.38
2023-11-27T13:25:10.708Z,988.33
2023-11-27T13:26:10.689Z,988.34
2023-11-27T13:27:10.632Z,988.38
2023-11-27T13:28:10.638Z,988.31
2023-11-27T13:29:10.606Z,988.30
2023-11-27T13:30:10.629Z,988.26
2023-11-27T13:31:10.650Z,988.28
2023-11-27T13:32:10.714Z,988.25
2023-11-27T13:33:10.597Z,988.26
2023-11-27T13:34:10.631Z,988.29
2023-11-27T13:35:10.551Z,988.18
2023-11-27T13:36:10.575Z,988.19
2023-11-27T13:37:10.574Z,988.10
2023-11-27T13:38:10.549Z,988.13
2023-11-27T13:39:10.528Z,988.09
2023-11-27T13:40:10.572Z,988.08
2023-11-27T13:41:10.480Z,988.09
2023-11-27T13:44:27.849Z,987.99
2023-11-27T13:45:34.840Z,987.96
2023-11-27T13:46:28.871Z,987.95
2023-11-27T13:47:28.901Z,987.93
2023-11-27T13:48:28.878Z,987.91
2023-11-27T13:49:28.838Z,987.90
2023-11-27T13:50:28.748Z,987.84
2023-11-27T13:51:28.770Z,987.83
2023-11-27T13:52:28.784Z,987.79
2023-11-27T13:53:28.734Z,987.80
2023-11-27T13:54:28.762Z,987.81
2023-11-27T13:55:28.714Z,987.72
2023-11-27T13:56:28.695Z,987.70
2023-11-27T13:57:29.126Z,987.70
2023-11-27T13:58:28.725Z,987.71
2023-11-27T13:59:28.664Z,987.68
2023-11-27T14:00:28.675Z,987.70
2023-11-27T14:01:28.842Z,987.65
2023-11-27T14:02:29.567Z,987.63
2023-11-27T14:03:28.692Z,987.63
2023-11-27T14:04:28.852Z,987.60
2023-11-27T14:05:28.690Z,987.60
2023-11-27T14:06:28.608Z,987.55
2023-11-27T14:07:28.693Z,987.54
2023-11-27T14:08:28.553Z,987.42
2023-11-27T14:09:28.555Z,987.42
2023-11-27T14:10:28.579Z,987.38
2023-11-27T14:11:33.139Z,987.39
2023-11-27T14:12:28.519Z,987.36
2023-11-27T14:13:28.558Z,987.30
2023-11-27T14:14:28.487Z,987.30
2023-11-27T14:15:28.495Z,987.29
2023-11-27T14:16:28.627Z,987.29
2023-11-27T14:17:28.560Z,987.23
2023-11-27T14:18:28.686Z,987.23
2023-11-27T14:19:28.505Z,987.20
2023-11-27T14:20:28.450Z,987.25
2023-11-27T14:21:28.460Z,987.22
2023-11-27T14:22:28.474Z,987.21
2023-11-27T14:23:28.420Z,987.23
2023-11-27T14:24:28.416Z,987.23
2023-11-27T14:25:28.412Z,987.17
2023-11-27T14:26:28.378Z,987.21
2023-11-27T14:27:28.373Z,987.19
2023-11-27T14:28:28.433Z,987.18
2023-11-27T14:29:28.384Z,987.15
2023-11-27T14:30:28.375Z,987.14
2023-11-27T14:31:28.358Z,987.10
2023-11-27T14:32:28.311Z,987.08
2023-11-27T14:33:28.351Z,987.05
2023-11-27T14:34:28.335Z,987.02
2023-11-27T14:35:28.306Z,987.04
2023-11-27T14:36:28.279Z,986.98
2023-11-27T14:37:28.314Z,986.96
2023-11-27T14:38:28.256Z,986.90
2023-11-27T14:39:28.289Z,986.95
2023-11-27T14:40:28.276Z,986.93
2023-11-27T14:41:28.238Z,986.91
2023-11-27T14:42:28.195Z,986.90
2023-11-27T14:43:28.263Z,986.89
2023-11-27T14:44:28.183Z,986.86
2023-11-27T14:45:28.202Z,986.85
2023-11-27T14:46:28.278Z,986.87
2023-11-27T14:47:28.327Z,986.86
2023-11-27T14:48:28.167Z,986.84
2023-11-27T14:49:28.184Z,986.80
2023-11-27T14:50:28.124Z,986.78
2023-11-27T14:51:28.194Z,986.76
2023-11-27T14:52:28.746Z,986.74
2023-11-27T14:53:28.110Z,986.71
2023-11-27T14:54:28.082Z,986.71
2023-11-27T14:55:28.098Z,986.69
2023-11-27T14:56:28.250Z,986.65
2023-11-27T14:57:28.061Z,986.65
2023-11-27T14:58:28.049Z,986.61
2023-11-27T14:59:28.044Z,986.57
2023-11-27T15:00:29.285Z,986.55
2023-11-27T15:01:28.189Z,986.54
2023-11-27T15:02:28.091Z,986.56
2023-11-27T15:03:28.282Z,986.54
2023-11-27T15:04:28.049Z,986.53
2023-11-27T15:05:27.974Z,986.49
2023-11-27T15:06:27.957Z,986.44
2023-11-27T15:07:28.074Z,986.41
2023-11-27T15:08:27.933Z,986.37
2023-11-27T15:09:28.006Z,986.37
2023-11-27T15:10:27.939Z,986.37
2023-11-27T15:11:27.914Z,986.33
2023-11-27T15:12:27.897Z,986.32
2023-11-27T15:13:27.975Z,986.27
2023-11-27T15:14:27.896Z,986.23
2023-11-27T15:15:28.139Z,986.22
2023-11-27T15:16:27.980Z,986.21
2023-11-27T15:17:27.925Z,986.19
2023-11-27T15:18:27.850Z,986.18
2023-11-27T15:19:27.896Z,986.16
2023-11-27T15:20:28.238Z,986.15
2023-11-27T15:21:27.820Z,986.15
2023-11-27T15:22:27.807Z,986.14
2023-11-27T15:23:27.817Z,986.12
2023-11-27T15:24:27.772Z,986.12
2023-11-27T15:25:27.843Z,986.06
2023-11-27T15:26:27.787Z,986.05
2023-11-27T15:27:27.800Z,986.03
2023-11-27T15:28:27.769Z,986.07
2023-11-27T15:29:27.738Z,985.97
2023-11-27T15:30:27.706Z,985.96
2023-11-27T15:31:27.811Z,985.97
2023-11-27T15:32:27.735Z,985.94
2023-11-27T15:33:27.793Z,985.91
2023-11-27T15:34:29.207Z,985.87
2023-11-27T15:35:27.681Z,985.87
2023-11-27T15:36:27.652Z,985.84
2023-11-27T15:37:33.771Z,985.78
2023-11-27T15:42:05.630Z,985.74
2023-11-27T15:43:06.704Z,985.72
2023-11-27T15:44:06.588Z,985.71
2023-11-27T15:45:06.591Z,985.71
2023-11-27T15:46:09.212Z,985.67
2023-11-27T15:47:06.849Z,985.68
2023-11-27T15:48:06.638Z,985.62
2023-11-27T15:49:06.669Z,985.61
2023-11-27T15:50:06.581Z,985.59
2023-11-27T15:51:06.614Z,985.58
2023-11-27T15:52:06.554Z,985.59
2023-11-27T15:53:06.578Z,985.57
2023-11-27T15:54:06.567Z,985.55
2023-11-27T15:55:06.578Z,985.55
2023-11-27T15:56:06.522Z,985.52
2023-11-27T15:57:06.516Z,985.52
2023-11-27T15:58:06.521Z,985.51
2023-11-27T15:59:06.511Z,985.47
2023-11-27T16:00:06.510Z,985.48
2023-11-27T16:01:06.535Z,985.45
2023-11-27T16:02:06.507Z,985.44
2023-11-27T16:03:06.488Z,985.40
2023-11-27T16:04:06.462Z,985.40
2023-11-27T16:05:06.445Z,985.35
2023-11-27T16:06:06.525Z,985.32
2023-11-27T16:07:06.433Z,985.31
2023-11-27T16:08:07.391Z,985.28
2023-11-27T16:09:06.391Z,985.28
2023-11-27T16:10:06.379Z,985.26
2023-11-27T16:11:06.399Z,985.25
2023-11-27T16:12:06.643Z,985.23
2023-11-27T16:13:06.358Z,985.23
2023-11-27T16:14:06.355Z,985.18
2023-11-27T16:15:06.341Z,985.16
2023-11-27T16:16:06.322Z,985.15
2023-11-27T16:17:06.300Z,985.12
2023-11-27T16:18:06.375Z,985.11
2023-11-27T16:19:06.298Z,985.10
2023-11-27T16:20:06.289Z,985.12
2023-11-27T16:21:06.261Z,985.06
2023-11-27T16:22:06.269Z,985.05
2023-11-27T16:23:06.290Z,985.02
2023-11-27T16:24:06.250Z,985.00
2023-11-27T16:25:06.224Z,984.98
2023-11-27T16:26:06.218Z,984.94
2023-11-27T16:27:06.196Z,984.91
2023-11-27T16:28:06.217Z,984.88
2023-11-27T16:29:06.225Z,984.85
2023-11-27T16:30:06.200Z,984.84
2023-11-27T16:31:06.209Z,984.82
2023-11-27T16:32:06.252Z,984.84
2023-11-27T16:33:06.184Z,984.82
2023-11-27T16:34:06.168Z,984.79
2023-11-27T16:35:06.132Z,984.78
2023-11-27T16:36:06.141Z,984.78
2023-11-27T16:37:06.112Z,984.76
2023-11-27T16:38:06.104Z,984.75
2023-11-27T16:39:06.091Z,984.72
2023-11-27T16:40:06.085Z,984.73
2023-11-27T16:41:06.083Z,984.71
2023-11-27T16:42:06.063Z,984.70
2023-11-27T16:43:06.034Z,984.66
2023-11-27T16:44:06.042Z,984.65
2023-11-27T16:45:06.018Z,984.66
2023-11-27T16:46:06.153Z,984.63
2023-11-27T16:47:06.810Z,984.61
2023-11-27T16:48:07.879Z,984.61
2023-11-27T16:49:05.977Z,984.58
2023-11-27T16:50:05.993Z,984.56
2023-11-27T16:51:05.956Z,984.55
2023-11-27T16:52:05.992Z,984.51
2023-11-27T16:53:05.932Z,984.51
2023-11-27T16:54:05.941Z,984.49
2023-11-27T16:55:07.545Z,984.47
2023-11-27T16:56:05.938Z,984.49
2023-11-27T16:57:05.887Z,984.46
2023-11-27T16:58:06.925Z,984.48
2023-11-27T16:59:05.873Z,984.42
2023-11-27T17:00:05.887Z,984.43
2023-11-27T17:01:05.852Z,984.41
2023-11-27T17:02:06.006Z,984.42
2023-11-27T17:03:06.095Z,984.40
2023-11-27T17:04:05.943Z,984.39
2023-11-27T17:05:05.890Z,984.36
2023-11-27T17:06:05.815Z,984.37
2023-11-27T17:07:05.799Z,984.36
2023-11-27T17:08:05.799Z,984.33
2023-11-27T17:09:05.776Z,984.31
2023-11-27T17:10:05.854Z,984.31
2023-11-27T17:11:05.770Z,984.29
2023-11-27T17:12:05.764Z,984.26
2023-11-27T17:13:05.725Z,984.28
2023-11-27T17:14:05.754Z,984.26